KAIK/AIK METAR and TAF weather

Enter ICAO airport designator
Station Type Date Time Source
KAIK METAR 2019/10/21 02:35 UTC NOAA

KAIK 210235Z AUTO 00000KT 10SM CLR 16/16 A3000 RMK AO2


Station Type Date Time Source
KAIK Decoded METAR 2019/10/21 02:35 UTC NOAA

Station name not available
Oct 20, 2019 - 10:35 PM EDT / 2019.10.21 0235 UTC
Wind: Calm:0
Visibility: 10 mile(s):0
Sky conditions: clear
Temperature: 60 F (16 C)
Dew Point: 60 F (16 C)
Relative Humidity: 100%
Pressure (altimeter): 30 in. Hg (1015 hPa)
ob: KAIK 210235Z AUTO 00000KT 10SM CLR 16/16 A3000 RMK AO2
cycle: 2

Station Type Date Time Source
KAIK TAF UTC NOAA

Error!

Example: see airport list